Time;durP1;ratioP1;P1;durP2;ratioP2;P2;SDS_P1;SDS_P2;PMS_P1;PMS_P2;Temp;Humidity;BMP_temperature;BMP_pressure;BME280_temperature;BME280_humidity;BME280_pressure;Samples;Min_cycle;Max_cycle;Signal;HPM_P1;HPM_P2
2021/01/08 00:00:59;;;;;;;13.05;8.25;;;1.00;80.20;;;-0.06;65.33;94482.72;5033123;28;20220;-80
2021/01/08 00:03:26;;;;;;;13.30;8.57;;;1.00;80.20;;;-0.04;65.32;94478.25;5049809;28;20208;-80
2021/01/08 00:05:52;;;;;;;12.52;7.28;;;1.10;80.30;;;-0.04;65.34;94489.38;5034227;28;20239;-80
2021/01/08 00:08:19;;;;;;;12.32;8.18;;;1.10;80.30;;;-0.01;65.42;94493.44;5033462;28;20868;-80
2021/01/08 00:10:48;;;;;;;11.43;7.40;;;1.10;80.30;;;0.01;65.54;94488.94;5017368;28;20251;-80
2021/01/08 00:13:15;;;;;;;14.82;8.75;;;1.10;80.30;;;0.01;65.21;94483.78;5049489;28;20199;-81
2021/01/08 00:15:43;;;;;;;12.23;8.10;;;1.10;80.20;;;0.01;65.05;94486.38;5048059;28;20688;-80
2021/01/08 00:18:09;;;;;;;15.52;9.05;;;1.20;80.30;;;0.02;65.08;94482.84;5049764;28;20222;-80
2021/01/08 00:20:36;;;;;;;13.20;7.68;;;1.10;80.20;;;0.03;64.88;94474.16;5049432;28;20304;-80
2021/01/08 00:23:02;;;;;;;12.20;8.10;;;1.20;80.30;;;0.03;65.38;94469.00;5049830;28;20196;-80
2021/01/08 00:25:29;;;;;;;10.63;7.90;;;1.20;80.30;;;0.03;65.26;94475.94;5064673;28;20303;-80
2021/01/08 00:27:58;;;;;;;14.98;9.15;;;1.20;80.20;;;0.03;65.19;94468.19;5049351;28;20677;-80
2021/01/08 00:30:24;;;;;;;14.20;8.32;;;1.20;80.20;;;0.06;65.27;94473.91;5051751;28;20720;-80
2021/01/08 00:32:52;;;;;;;12.35;8.45;;;1.20;80.20;;;0.08;65.06;94468.59;5049445;28;20286;-81
2021/01/08 00:35:19;;;;;;;11.88;7.45;;;1.20;80.30;;;0.10;65.37;94471.84;5044011;28;20227;-79
2021/01/08 00:37:45;;;;;;;14.23;9.00;;;1.20;81.10;;;0.06;65.30;94457.59;5043883;28;20197;-81
2021/01/08 00:40:12;;;;;;;12.07;8.25;;;1.20;80.30;;;0.10;65.21;94453.81;5042578;28;20224;-79
2021/01/08 00:42:40;;;;;;;13.13;8.25;;;1.20;80.30;;;0.09;65.37;94460.72;5038472;28;20196;-80
2021/01/08 00:45:08;;;;;;;13.02;7.95;;;1.20;80.30;;;0.12;65.19;94460.44;5049353;28;20724;-80
2021/01/08 00:47:35;;;;;;;12.10;8.07;;;1.30;80.40;;;0.16;65.34;94458.41;5049974;28;20220;-80
2021/01/08 00:50:02;;;;;;;13.07;8.30;;;1.30;81.20;;;0.18;65.65;94453.91;5032633;28;20215;-80
2021/01/08 00:52:28;;;;;;;13.27;8.38;;;1.30;80.40;;;0.20;65.43;94454.59;5032599;28;20207;-80
2021/01/08 00:54:55;;;;;;;12.88;8.43;;;1.30;80.30;;;0.21;65.17;94458.78;5033426;28;20211;-80
2021/01/08 00:57:35;;;;;;;12.75;7.95;;;1.30;80.30;;;0.15;65.30;94449.84;5037446;28;20291;-79
2021/01/08 01:00:04;;;;;;;13.80;8.02;;;1.30;80.40;;;0.27;65.32;94454.81;5033859;28;20583;-80
2021/01/08 01:02:33;;;;;;;11.63;7.95;;;1.30;80.30;;;0.28;65.51;94459.88;5049304;28;20616;-80
2021/01/08 01:05:00;;;;;;;12.45;7.82;;;1.40;80.40;;;0.30;65.42;94463.09;5033616;28;20764;-79
2021/01/08 01:07:27;;;;;;;15.13;9.10;;;1.40;80.40;;;0.30;65.26;94468.25;5017250;28;20292;-80
2021/01/08 01:09:54;;;;;;;12.27;8.35;;;1.40;80.40;;;0.32;65.12;94468.94;5049888;28;20228;-79
2021/01/08 01:12:20;;;;;;;15.57;9.30;;;1.40;80.30;;;0.33;65.20;94472.34;5033406;28;20215;-80
2021/01/08 01:14:48;;;;;;;14.20;8.80;;;1.40;80.30;;;0.35;65.21;94469.63;5049860;28;20219;-80
2021/01/08 01:17:14;;;;;;;15.55;9.80;;;1.50;80.40;;;0.35;65.23;94469.63;5033957;28;20282;-81
2021/01/08 01:19:42;;;;;;;14.23;9.02;;;1.50;80.40;;;0.36;65.15;94471.25;5050408;28;20220;-79
2021/01/08 01:22:09;;;;;;;13.75;8.95;;;1.50;80.30;;;0.32;65.31;94465.56;5033406;28;20196;-81
2021/01/08 01:24:35;;;;;;;13.27;8.18;;;1.50;80.40;;;0.39;65.25;94476.13;5032898;28;20224;-80
2021/01/08 01:27:02;;;;;;;13.77;9.02;;;1.50;80.40;;;0.41;65.41;94476.81;5016750;28;20302;-81
2021/01/08 01:29:29;;;;;;;12.63;8.10;;;1.50;80.40;;;0.43;65.36;94465.38;5047064;28;20638;-80
2021/01/08 01:31:57;;;;;;;11.80;7.82;;;1.50;80.40;;;0.45;65.41;94478.97;5046058;28;20216;-80
2021/01/08 01:34:24;;;;;;;15.05;9.00;;;1.50;81.20;;;0.46;65.33;94472.84;5033097;28;20252;-81
2021/01/08 01:36:51;;;;;;;12.90;8.75;;;1.50;80.40;;;0.49;65.29;94474.34;5049395;28;20200;-80
2021/01/08 01:39:17;;;;;;;13.77;8.77;;;1.50;80.30;;;0.50;65.16;94477.72;5032782;28;20261;-80
2021/01/08 01:41:44;;;;;;;14.60;9.23;;;1.60;80.40;;;0.49;65.15;94474.34;5048616;28;20200;-80
2021/01/08 01:44:12;;;;;;;14.25;9.25;;;1.60;80.40;;;0.48;65.01;94478.66;5048784;28;20757;-80
2021/01/08 01:46:39;;;;;;;14.68;9.30;;;1.60;80.40;;;0.44;65.32;94468.75;5049218;28;20227;-80
2021/01/08 01:49:08;;;;;;;12.95;8.38;;;1.60;80.50;;;0.51;65.16;94479.34;5049186;28;20196;-80
2021/01/08 01:51:34;;;;;;;17.52;10.70;;;1.60;80.40;;;0.50;65.29;94480.31;5034510;28;20700;-80
2021/01/08 01:54:01;;;;;;;16.60;9.80;;;1.60;80.40;;;0.50;65.27;94475.97;5037713;28;20647;-80
2021/01/08 01:56:28;;;;;;;14.65;8.98;;;1.60;80.30;;;0.53;65.21;94477.47;5019279;28;20196;-81
2021/01/08 01:58:54;;;;;;;14.35;9.43;;;1.70;80.40;;;0.53;65.35;94480.84;5053143;28;20215;-80
2021/01/08 02:01:21;;;;;;;13.35;8.52;;;1.60;80.40;;;0.53;65.25;94469.72;5052739;28;20632;-79
2021/01/08 02:03:51;;;;;;;12.88;8.77;;;1.60;80.40;;;0.53;65.16;94470.50;5050963;28;20208;-80
2021/01/08 02:06:22;;;;;;;13.57;8.55;;;1.60;80.30;;;0.55;65.37;94468.63;5048296;28;20216;-79
2021/01/08 02:08:55;;;;;;;12.20;8.30;;;1.60;80.30;;;0.52;65.43;94463.72;5050568;28;20200;-79
2021/01/08 02:11:27;;;;;;;15.18;9.05;;;1.60;80.30;;;0.54;65.27;94472.16;5032943;28;20304;-80
2021/01/08 02:14:16;;;;;;;15.85;9.52;;;1.70;80.40;;;0.55;65.08;94472.94;5051425;28;20212;-80
2021/01/08 02:16:45;;;;;;;14.57;9.02;;;1.70;80.40;;;0.54;65.02;94473.91;5051786;28;20235;-79
2021/01/08 02:19:24;;;;;;;13.00;8.43;;;1.70;80.40;;;0.55;65.15;94471.19;5050365;28;20654;-79
2021/01/08 02:22:25;;;;;;;14.63;8.43;;;1.70;80.40;;;0.54;65.38;94472.16;5028857;28;20192;-79
2021/01/08 02:24:57;;;;;;;15.63;8.98;;;1.70;80.40;;;0.55;65.49;94481.50;5045007;28;20633;-79
2021/01/08 02:27:27;;;;;;;13.77;8.88;;;1.70;80.40;;;0.55;65.30;94480.69;5048432;28;20200;-79
2021/01/08 02:29:54;;;;;;;14.90;9.25;;;1.70;80.40;;;0.56;65.23;94479.75;5050883;28;20234;-80
2021/01/08 02:32:21;;;;;;;11.95;8.02;;;1.70;80.40;;;0.55;65.34;94473.78;5047938;28;20278;-80
2021/01/08 02:34:49;;;;;;;14.02;8.75;;;1.60;80.30;;;0.57;65.15;94479.59;5050204;28;20227;-79
2021/01/08 02:37:17;;;;;;;15.38;9.55;;;1.70;80.40;;;0.57;65.27;94476.22;5049792;28;20222;-79
2021/01/08 02:39:44;;;;;;;14.43;9.07;;;1.70;80.40;;;0.53;65.25;94465.34;5032811;28;20311;-79
2021/01/08 02:42:15;;;;;;;14.95;9.13;;;1.70;80.40;;;0.58;65.42;94478.63;5047714;28;20249;-79
2021/01/08 02:44:42;;;;;;;12.80;8.25;;;1.70;80.40;;;0.59;65.32;94469.16;5048582;28;20224;-79
2021/01/08 02:47:10;;;;;;;12.23;7.93;;;1.70;80.40;;;0.61;65.18;94473.22;5048188;28;20196;-79
2021/01/08 02:49:37;;;;;;;14.00;8.88;;;1.70;80.40;;;0.56;65.32;94462.50;5051613;28;20219;-79
2021/01/08 02:52:06;;;;;;;13.93;8.85;;;1.70;80.50;;;0.63;65.33;94470.47;5050583;28;20661;-80
2021/01/08 02:54:33;;;;;;;13.20;8.57;;;1.70;80.40;;;0.64;65.07;94469.53;5049023;28;20254;-79
2021/01/08 02:57:02;;;;;;;13.30;8.43;;;1.70;80.40;;;0.63;65.41;94461.00;5032329;28;20251;-79
2021/01/08 02:59:31;;;;;;;15.60;9.10;;;1.70;80.50;;;0.65;65.42;94463.41;5034021;28;20281;-79
2021/01/08 03:01:58;;;;;;;14.27;8.65;;;1.70;80.40;;;0.66;65.38;94459.88;5048845;28;20189;-79
2021/01/08 03:04:25;;;;;;;16.15;9.13;;;1.70;80.40;;;0.67;65.26;94469.22;5078486;28;20223;-78
2021/01/08 03:06:53;;;;;;;13.57;8.98;;;1.70;80.40;;;0.66;65.60;94457.31;5073124;28;20205;-79
2021/01/08 03:09:20;;;;;;;14.95;9.60;;;1.70;80.40;;;0.67;65.42;94466.66;5055604;28;20306;-79
2021/01/08 03:11:54;;;;;;;15.00;9.63;;;1.80;80.50;;;0.64;65.25;94454.84;5048729;28;20591;-79
2021/01/08 03:14:23;;;;;;;16.73;10.73;;;1.80;80.40;;;0.66;65.26;94459.06;5059118;28;20200;-79
2021/01/08 03:16:50;;;;;;;15.82;9.98;;;1.80;80.50;;;0.67;65.34;94465.84;5067348;28;20197;-80
2021/01/08 03:19:17;;;;;;;15.52;9.90;;;1.80;80.50;;;0.67;65.38;94469.22;5056555;28;20204;-79
2021/01/08 03:21:44;;;;;;;13.40;8.60;;;1.80;80.40;;;0.68;65.04;94470.88;5059168;28;20664;-78
2021/01/08 03:24:11;;;;;;;15.85;10.07;;;1.80;80.50;;;0.68;64.92;94459.75;5026289;28;20204;-79
2021/01/08 03:26:38;;;;;;;17.17;9.43;;;1.80;80.50;;;0.69;65.41;94458.78;5025063;28;20220;-80
2021/01/08 03:29:07;;;;;;;14.52;8.73;;;1.80;80.40;;;0.71;65.29;94469.75;5047713;28;20658;-79
2021/01/08 03:31:34;;;;;;;12.23;8.38;;;1.80;80.40;;;0.71;65.26;94465.44;5014707;28;20308;-79
2021/01/08 03:34:01;;;;;;;14.68;9.40;;;1.80;80.40;;;0.70;65.13;94466.38;5049186;28;20511;-79
2021/01/08 03:36:27;;;;;;;14.50;9.32;;;1.80;80.40;;;0.69;65.51;94466.53;5047242;28;20208;-79
2021/01/08 03:38:54;;;;;;;14.82;9.55;;;1.80;80.50;;;0.73;65.26;94462.69;5049908;28;20196;-78
2021/01/08 03:41:22;;;;;;;16.42;9.65;;;1.80;80.80;;;0.69;65.19;94457.00;5044965;28;20622;-79
2021/01/08 03:43:49;;;;;;;19.02;10.13;;;1.80;80.40;;;0.71;65.25;94460.25;5033454;28;20736;-80
2021/01/08 03:46:16;;;;;;;15.02;9.73;;;1.80;80.40;;;0.70;65.32;94458.63;5049340;28;20266;-80
2021/01/08 03:48:43;;;;;;;14.40;9.65;;;1.80;80.40;;;0.71;65.40;94459.44;5031361;28;20199;-80
2021/01/08 03:51:10;;;;;;;15.52;9.02;;;1.80;80.40;;;0.71;65.19;94457.69;5049682;28;20223;-79
2021/01/08 03:53:37;;;;;;;14.90;9.00;;;1.80;80.40;;;0.69;65.26;94454.44;5025183;28;20204;-80
2021/01/08 03:56:04;;;;;;;14.05;8.50;;;1.80;80.40;;;0.72;65.20;94458.47;5058568;28;20222;-79
2021/01/08 03:58:31;;;;;;;14.57;9.65;;;1.80;80.40;;;0.69;64.83;94453.63;5031021;28;20216;-79
2021/01/08 04:00:59;;;;;;;15.02;9.88;;;1.80;80.40;;;0.69;65.25;94462.16;5050465;28;20344;-79
2021/01/08 04:03:26;;;;;;;15.52;10.07;;;1.80;80.50;;;0.69;65.32;94451.03;5015638;28;20578;-80
2021/01/08 04:05:53;;;;;;;18.40;11.07;;;1.80;80.50;;;0.68;65.36;94444.25;5042851;28;20278;-80
2021/01/08 04:08:20;;;;;;;15.45;10.45;;;1.80;80.40;;;0.67;65.43;94440.84;5051047;28;20227;-80
2021/01/08 04:10:48;;;;;;;15.60;9.95;;;1.80;80.40;;;0.67;65.27;94446.00;5048393;28;20682;-79
2021/01/08 04:13:15;;;;;;;14.85;10.27;;;1.80;80.50;;;0.66;65.34;94443.56;5058373;28;20216;-79
2021/01/08 04:15:42;;;;;;;14.95;8.98;;;1.80;80.50;;;0.69;65.61;94445.88;5032316;28;20223;-78
2021/01/08 04:18:10;;;;;;;15.32;9.82;;;1.80;80.50;;;0.67;65.11;94434.88;5049989;28;20192;-78
2021/01/08 04:20:37;;;;;;;18.00;10.75;;;1.80;80.50;;;0.68;65.15;94444.25;5050408;28;20207;-79
2021/01/08 04:23:05;;;;;;;15.27;9.52;;;1.80;80.40;;;0.68;65.12;94439.09;5023371;28;20234;-79
2021/01/08 04:25:32;;;;;;;14.73;8.73;;;1.80;80.40;;;0.68;65.32;94436.50;5038709;28;20242;-79
2021/01/08 04:28:00;;;;;;;16.92;10.60;;;1.80;80.40;;;0.64;65.25;94431.63;5039905;28;20188;-80
2021/01/08 04:30:27;;;;;;;16.30;9.60;;;1.80;80.50;;;0.68;65.20;94431.34;5032826;28;20334;-79
2021/01/08 04:32:54;;;;;;;16.38;10.25;;;1.80;80.50;;;0.67;65.40;94427.94;5050085;28;20549;-79
2021/01/08 04:35:21;;;;;;;16.10;9.95;;;1.80;80.50;;;0.68;65.62;94439.88;5047720;28;20398;-78
2021/01/08 04:37:48;;;;;;;14.68;9.43;;;1.80;80.50;;;0.66;65.30;94435.81;5026823;28;20238;-79
2021/01/08 04:40:15;;;;;;;16.27;9.65;;;1.80;80.50;;;0.66;65.40;94444.41;5047213;28;20247;-79
2021/01/08 04:42:41;;;;;;;16.25;9.70;;;1.80;80.50;;;0.67;65.33;94451.16;5040135;28;20202;-79
2021/01/08 04:45:10;;;;;;;15.63;9.68;;;1.70;80.40;;;0.68;65.57;94449.41;5046970;28;20278;-78
2021/01/08 04:47:38;;;;;;;17.02;10.20;;;1.80;80.50;;;0.68;65.42;94447.63;5046530;28;20200;-79
2021/01/08 04:50:06;;;;;;;16.02;9.95;;;1.80;80.60;;;0.70;65.39;94443.16;5048075;28;20764;-78
2021/01/08 04:52:35;;;;;;;16.95;10.32;;;1.80;80.50;;;0.72;65.52;94443.00;5046703;28;20216;-80
2021/01/08 04:55:02;;;;;;;15.05;10.00;;;1.80;80.50;;;0.71;65.11;94442.19;5029434;28;20215;-79
2021/01/08 04:57:31;;;;;;;15.82;10.30;;;1.80;80.60;;;0.73;65.63;94434.31;5047860;28;20236;-79
2021/01/08 04:59:58;;;;;;;16.65;10.50;;;1.80;80.60;;;0.75;65.35;94440.94;5049195;28;20298;-79
2021/01/08 05:02:26;;;;;;;15.70;9.45;;;1.80;80.50;;;0.74;65.12;94433.34;5048769;28;20678;-80
2021/01/08 05:04:54;;;;;;;16.13;9.38;;;1.80;80.60;;;0.77;65.32;94435.66;5032353;28;20222;-80
2021/01/08 05:07:21;;;;;;;16.23;9.60;;;1.80;80.50;;;0.78;65.55;94432.09;5048157;28;20196;-80
2021/01/08 05:09:48;;;;;;;17.02;9.93;;;1.80;80.60;;;0.77;65.10;94433.09;5031560;28;20212;-80
2021/01/08 05:12:15;;;;;;;15.95;10.30;;;1.80;80.50;;;0.76;65.59;94437.41;5012462;28;20225;-80
2021/01/08 05:14:44;;;;;;;17.20;10.50;;;1.90;80.50;;;0.75;65.24;94429.81;5045427;28;20265;-79
2021/01/08 05:17:11;;;;;;;16.80;10.63;;;1.90;80.50;;;0.77;65.39;94438.25;5031867;28;20253;-80
2021/01/08 05:19:39;;;;;;;16.45;10.63;;;1.90;80.50;;;0.77;65.32;94430.50;5017053;28;20224;-80
2021/01/08 05:22:08;;;;;;;17.77;10.75;;;1.80;80.50;;;0.75;65.35;94433.19;5031707;28;20191;-79
2021/01/08 05:24:35;;;;;;;15.57;9.68;;;1.90;80.50;;;0.77;65.23;94435.66;5048671;28;20685;-79
2021/01/08 05:27:06;;;;;;;19.77;10.75;;;1.80;80.40;;;0.76;65.24;94426.28;5018827;28;20287;-79
2021/01/08 05:29:32;;;;;;;16.35;10.30;;;1.90;80.50;;;0.75;65.45;94429.81;5088557;28;20232;-79
2021/01/08 05:32:00;;;;;;;20.10;11.60;;;1.90;80.50;;;0.75;65.23;94435.78;5035299;28;20724;-79
2021/01/08 05:34:29;;;;;;;17.77;11.57;;;1.90;80.50;;;0.75;65.50;94440.94;5053592;28;20231;-79
2021/01/08 05:36:57;;;;;;;16.88;10.75;;;1.80;80.50;;;0.78;65.14;94442.44;5036954;28;20201;-79
2021/01/08 05:39:27;;;;;;;17.48;10.60;;;1.90;80.50;;;0.79;65.39;94447.47;5036010;28;20219;-78
2021/01/08 05:41:54;;;;;;;18.42;11.18;;;1.90;80.60;;;0.80;65.36;94443.91;5020392;28;20203;-79
2021/01/08 05:44:23;;;;;;;18.85;11.90;;;1.90;80.50;;;0.80;65.17;94440.53;5012663;28;20731;-79
2021/01/08 05:46:51;;;;;;;16.77;10.38;;;1.90;80.60;;;0.82;65.47;94440.38;5053759;28;20254;-79
2021/01/08 05:49:19;;;;;;;19.35;10.70;;;1.90;80.60;;;0.84;65.31;94436.69;5035595;28;20333;-79
2021/01/08 05:51:46;;;;;;;17.77;11.00;;;1.90;80.60;;;0.83;65.37;94434.25;5053589;28;20227;-78
2021/01/08 05:54:14;;;;;;;18.20;11.40;;;1.90;80.60;;;0.85;65.47;94429.78;5013398;28;20553;-79
2021/01/08 05:56:42;;;;;;;16.50;10.60;;;1.90;80.60;;;0.89;65.77;94437.09;5049321;28;20198;-79
2021/01/08 05:59:09;;;;;;;16.13;9.90;;;1.90;80.50;;;0.87;65.47;94427.88;5035633;28;20196;-80
2021/01/08 06:01:38;;;;;;;17.65;10.52;;;1.90;80.60;;;0.92;65.45;94433.41;5037658;28;20287;-80
2021/01/08 06:04:07;;;;;;;15.75;9.65;;;1.90;80.60;;;0.93;65.46;94430.66;5037016;28;20207;-79
2021/01/08 06:06:43;;;;;;;19.05;10.93;;;1.90;80.60;;;0.93;65.31;94425.50;5040907;28;20290;-79
2021/01/08 06:09:16;;;;;;;15.88;9.65;;;2.00;80.50;;;0.94;65.47;94426.31;5052503;28;20202;-79
2021/01/08 06:11:45;;;;;;;18.67;10.80;;;1.90;80.50;;;0.97;65.23;94426.03;5068944;28;20223;-79
2021/01/08 06:14:16;;;;;;;16.40;10.00;;;2.00;80.60;;;0.97;65.51;94432.97;5035740;28;20208;-80
2021/01/08 06:16:48;;;;;;;18.80;10.90;;;2.00;80.60;;;0.95;65.48;94436.50;5044108;28;20726;-79
2021/01/08 06:19:16;;;;;;;24.08;12.98;;;2.00;80.60;;;0.93;65.21;94435.84;5051201;28;20715;-79
2021/01/08 06:21:46;;;;;;;49.33;24.40;;;2.00;80.50;;;0.97;65.35;94435.56;5034690;28;20226;-79
2021/01/08 06:24:23;;;;;;;28.42;15.60;;;2.00;80.50;;;0.97;65.27;94435.56;5034502;28;20185;-79
2021/01/08 06:26:50;;;;;;;20.17;12.82;;;2.00;80.60;;;0.98;65.46;94444.91;5033240;28;20203;-79
2021/01/08 06:29:20;;;;;;;20.33;11.73;;;2.00;80.60;;;0.97;65.39;94438.94;5049296;28;20192;-80
2021/01/08 06:31:52;;;;;;;17.15;11.20;;;2.00;80.50;;;0.95;65.27;94439.09;5034381;28;20619;-80
2021/01/08 06:34:30;;;;;;;18.65;11.45;;;2.10;80.50;;;0.92;64.92;94441.94;5033498;28;20252;-79
2021/01/08 06:37:06;;;;;;;18.55;11.02;;;2.00;80.40;;;0.90;65.35;94443.84;5064843;28;20710;-80
2021/01/08 06:39:36;;;;;;;19.00;11.52;;;2.00;80.30;;;0.83;65.03;94437.66;5034072;28;20250;-79
2021/01/08 06:42:05;;;;;;;17.05;10.82;;;2.00;80.30;;;0.79;65.11;94446.63;5032988;28;20622;-79
2021/01/08 06:44:32;;;;;;;17.85;10.20;;;2.00;80.30;;;0.79;65.07;94446.63;5018131;28;20215;-79
2021/01/08 06:47:03;;;;;;;17.33;10.57;;;2.00;80.30;;;0.73;65.26;94447.22;5051714;28;20200;-80
2021/01/08 06:49:32;;;;;;;17.88;10.60;;;2.00;80.30;;;0.72;65.11;94450.75;5033801;28;20220;-80
2021/01/08 06:52:00;;;;;;;16.80;10.43;;;1.90;80.10;;;0.66;65.24;94448.72;5060385;28;20228;-80
2021/01/08 06:54:28;;;;;;;17.60;10.55;;;1.90;80.10;;;0.62;65.18;94446.44;5032989;28;20216;-80
2021/01/08 06:57:00;;;;;;;18.83;10.55;;;1.90;80.10;;;0.58;65.06;94458.00;5033683;28;20196;-80
2021/01/08 06:59:35;;;;;;;16.90;10.63;;;1.80;80.00;;;0.50;65.12;94451.91;5050734;28;20215;-79
2021/01/08 07:02:18;;;;;;;16.83;10.60;;;1.80;80.00;;;0.49;65.41;94464.03;5050440;28;20199;-80
2021/01/08 07:04:45;;;;;;;16.35;10.50;;;1.80;80.10;;;0.47;65.37;94464.13;5034544;28;20302;-80
2021/01/08 07:07:24;;;;;;;15.82;10.23;;;1.70;80.10;;;0.47;65.33;94466.72;5051077;28;20211;-79
2021/01/08 07:09:52;;;;;;;16.98;10.13;;;1.70;80.20;;;0.46;65.33;94474.59;5049223;28;20220;-79
2021/01/08 07:12:25;;;;;;;17.63;11.02;;;1.80;80.30;;;0.47;65.48;94469.31;5048271;28;20212;-80
2021/01/08 07:14:53;;;;;;;17.10;10.60;;;1.70;80.40;;;0.49;65.54;94474.34;5034079;28;20227;-80
2021/01/08 07:17:32;;;;;;;18.65;11.05;;;1.60;80.40;;;0.46;65.25;94472.03;5049796;28;20212;-79
2021/01/08 07:20:03;;;;;;;18.02;10.93;;;1.80;80.50;;;0.51;65.55;94479.34;5034206;28;20239;-79
2021/01/08 07:22:41;;;;;;;18.63;10.98;;;1.60;80.40;;;0.56;65.49;94482.31;5050597;28;20283;-80
2021/01/08 07:25:13;;;;;;;18.75;11.15;;;1.60;80.50;;;0.59;65.78;94482.84;5049000;28;20223;-80
2021/01/08 07:27:44;;;;;;;16.95;10.35;;;1.70;80.70;;;0.58;65.54;94483.00;5049986;28;20745;-80
2021/01/08 07:30:13;;;;;;;19.05;11.98;;;1.70;80.80;;;0.69;65.56;94490.56;5032810;28;20220;-79
2021/01/08 07:32:45;;;;;;;19.35;11.10;;;1.70;80.80;;;0.74;65.72;94487.56;5034610;28;20211;-78
2021/01/08 07:35:26;;;;;;;17.60;10.88;;;1.70;80.90;;;0.79;65.59;94485.34;5034974;28;20638;-78
2021/01/08 07:38:06;;;;;;;20.60;11.40;;;1.80;80.90;;;0.86;65.36;94491.59;5067427;28;20196;-77
2021/01/08 07:40:50;;;;;;;17.55;11.23;;;1.80;81.00;;;0.92;65.64;94487.63;5032123;28;20261;-78
2021/01/08 07:43:17;;;;;;;17.77;10.73;;;1.90;81.00;;;0.94;65.87;94489.09;5065903;28;20240;-77
2021/01/08 07:46:00;;;;;;;18.75;10.80;;;1.90;81.00;;;1.02;65.71;94492.75;5062386;28;20227;-77
2021/01/08 07:48:40;;;;;;;18.88;11.32;;;1.90;81.00;;;1.06;65.45;94494.06;5045579;28;20184;-77
2021/01/08 07:51:13;;;;;;;22.40;12.00;;;1.90;81.00;;;1.10;65.43;94498.00;5060464;28;20238;-78
2021/01/08 07:53:43;;;;;;;21.77;12.52;;;2.00;81.00;;;1.17;65.77;94500.81;5054244;28;20303;-77
2021/01/08 07:56:25;;;;;;;23.05;13.13;;;2.10;81.00;;;1.21;65.34;94502.97;5026550;28;20248;-78
2021/01/08 07:59:00;;;;;;;20.58;12.30;;;2.10;80.90;;;1.25;65.64;94503.50;5035979;28;20212;-80
2021/01/08 08:01:28;;;;;;;18.63;12.32;;;2.20;81.00;;;1.30;65.74;94500.50;5062412;28;20210;-76
2021/01/08 08:04:03;;;;;;;24.83;13.60;;;2.20;81.10;;;1.35;65.19;94506.03;5018426;28;20200;-77
2021/01/08 08:06:33;;;;;;;21.58;12.80;;;2.20;81.00;;;1.40;65.49;94508.97;5043889;28;20245;-77
2021/01/08 08:09:03;;;;;;;21.48;12.63;;;2.30;81.10;;;1.45;65.54;94509.34;5028519;28;20196;-78
2021/01/08 08:11:33;;;;;;;19.10;11.98;;;2.30;81.20;;;1.53;65.63;94514.63;5039111;28;20220;-79
2021/01/08 08:14:00;;;;;;;19.77;12.40;;;2.40;81.30;;;1.59;65.69;94519.19;5067388;28;20291;-78
2021/01/08 08:16:35;;;;;;;24.70;13.20;;;2.40;81.30;;;1.63;65.59;94508.56;5027320;28;20270;-78
2021/01/08 08:19:06;;;;;;;22.92;13.57;;;2.50;81.30;;;1.75;65.61;94522.91;5042192;28;20458;-78
2021/01/08 08:21:33;;;;;;;22.38;12.82;;;2.60;81.30;;;1.77;65.54;94515.84;5044989;28;20286;-79
2021/01/08 08:24:03;;;;;;;22.40;12.85;;;2.60;81.20;;;1.85;65.24;94525.44;5051650;28;20201;-79
2021/01/08 08:26:33;;;;;;;19.88;12.52;;;2.70;81.20;;;1.88;64.92;94531.13;5045956;28;20202;-79
2021/01/08 08:29:08;;;;;;;19.50;12.15;;;2.70;81.10;;;1.91;65.18;94535.97;5029371;28;20661;-79
2021/01/08 08:31:46;;;;;;;20.77;12.90;;;2.80;81.20;;;1.93;65.06;94533.25;5047284;28;20586;-79
2021/01/08 08:34:15;;;;;;;19.15;12.07;;;2.80;81.10;;;1.97;65.40;94539.75;5060989;28;20203;-78
2021/01/08 08:36:43;;;;;;;19.27;12.40;;;2.80;80.90;;;2.00;65.14;94534.31;5046020;28;20199;-80
2021/01/08 08:39:13;;;;;;;22.00;12.48;;;2.90;81.00;;;2.05;65.16;94539.84;5028578;28;20192;-78
2021/01/08 08:41:45;;;;;;;18.23;11.50;;;2.90;81.00;;;2.12;65.01;94536.66;5043795;28;20204;-79
2021/01/08 08:44:18;;;;;;;18.73;12.15;;;2.90;81.00;;;2.16;65.20;94543.13;5029190;28;20388;-80
2021/01/08 08:46:56;;;;;;;21.23;12.68;;;3.00;81.00;;;2.27;65.44;94539.50;5028026;28;20200;-79
2021/01/08 08:49:34;;;;;;;23.73;13.48;;;3.10;81.20;;;2.34;65.41;94543.94;5027391;28;20673;-79
2021/01/08 08:52:05;;;;;;;24.80;14.65;;;3.10;81.20;;;2.42;65.25;94539.78;5028572;28;20226;-79
2021/01/08 08:54:38;;;;;;;20.27;13.63;;;3.10;82.10;;;2.51;65.19;94544.88;5045455;28;20302;-79
2021/01/08 08:57:06;;;;;;;21.17;13.82;;;3.20;81.10;;;2.53;65.26;94532.59;5028743;28;20671;-80
2021/01/08 08:59:46;;;;;;;24.80;14.25;;;3.30;81.40;;;2.68;65.44;94534.63;5037992;28;20242;-79
2021/01/08 09:02:15;;;;;;;22.48;14.32;;;3.30;81.20;;;2.78;65.29;94540.50;5044010;28;20273;-79
2021/01/08 09:04:59;;;;;;;23.05;13.65;;;3.40;81.30;;;2.90;65.39;94541.06;5077378;28;20243;-78
2021/01/08 09:08:06;;;;;;;21.95;14.20;;;3.50;81.20;;;3.03;65.66;94530.28;5042888;28;20634;-80
2021/01/08 09:10:50;;;;;;;20.88;12.70;;;3.60;81.10;;;3.17;65.32;94540.09;5027616;28;20299;-80
2021/01/08 09:13:58;;;;;;;24.45;15.60;;;3.70;81.60;;;3.34;65.68;94525.41;5044765;28;20200;-79
2021/01/08 09:16:50;;;;;;;44.03;24.23;;;3.80;82.00;;;3.47;65.59;94522.34;5043545;28;20215;-79
2021/01/08 09:19:32;;;;;;;31.50;17.95;;;4.00;81.40;;;3.64;65.33;94530.19;5048043;28;20212;-79
2021/01/08 09:22:04;;;;;;;29.58;18.55;;;4.10;81.90;;;3.76;65.11;94523.75;5065185;28;20281;-79
2021/01/08 09:24:33;;;;;;;26.45;16.83;;;4.30;82.70;;;3.84;65.32;94523.75;5038410;28;20301;-79
2021/01/08 09:27:05;;;;;;;22.45;14.63;;;4.40;81.70;;;3.95;65.15;94527.00;5044929;28;20326;-79
2021/01/08 09:29:34;;;;;;;23.60;14.80;;;4.50;81.60;;;4.01;64.86;94527.16;5045165;28;20283;-79
2021/01/08 09:32:03;;;;;;;20.00;13.13;;;4.60;81.50;;;4.08;64.88;94526.53;5045376;28;20273;-79
2021/01/08 09:34:33;;;;;;;21.98;13.82;;;4.70;81.30;;;4.14;64.76;94526.69;5036802;28;20228;-79
2021/01/08 09:37:14;;;;;;;22.20;13.70;;;4.70;81.20;;;4.23;64.83;94529.31;5012232;28;20250;-79
2021/01/08 09:39:43;;;;;;;19.27;12.90;;;4.80;80.70;;;4.29;64.51;94528.66;5060744;28;20227;-79
2021/01/08 09:42:11;;;;;;;19.05;12.80;;;5.00;81.30;;;4.37;64.92;94520.03;5061516;28;20196;-79
2021/01/08 09:44:40;;;;;;;20.42;13.27;;;5.00;81.10;;;4.43;64.93;94520.22;5029072;28;20582;-80
2021/01/08 09:47:13;;;;;;;23.00;13.70;;;5.10;81.10;;;4.52;64.42;94522.78;5027014;28;20200;-79
2021/01/08 09:49:52;;;;;;;21.75;13.18;;;5.10;80.90;;;4.59;64.83;94509.00;5044823;28;20219;-79
2021/01/08 09:52:29;;;;;;;29.85;16.17;;;5.20;80.90;;;4.67;64.57;94515.94;5061028;28;20677;-79
2021/01/08 09:55:05;;;;;;;30.17;17.25;;;5.30;80.60;;;4.71;64.50;94517.25;5045511;28;20244;-79
2021/01/08 09:57:36;;;;;;;30.63;17.20;;;5.40;81.90;;;4.75;64.43;94509.94;5028067;28;20196;-78
2021/01/08 10:00:08;;;;;;;28.02;16.95;;;5.40;80.70;;;4.84;64.35;94515.94;5042537;28;20621;-78
2021/01/08 10:02:54;;;;;;;23.58;16.33;;;5.50;80.70;;;4.88;64.70;94512.00;5051076;28;20200;-79
2021/01/08 10:05:30;;;;;;;22.70;14.25;;;5.50;80.80;;;4.93;64.56;94507.13;5012268;28;20226;-79
2021/01/08 10:08:00;;;;;;;22.70;14.20;;;5.60;81.70;;;4.96;64.32;94512.00;5054398;28;20185;-79
2021/01/08 10:10:27;;;;;;;19.25;12.68;;;5.70;80.70;;;5.00;64.45;94505.47;5027925;28;20273;-79
2021/01/08 10:12:58;;;;;;;20.85;13.05;;;5.70;80.60;;;5.07;64.39;94505.63;5040584;28;20247;-80
2021/01/08 10:15:48;;;;;;;20.05;12.40;;;5.80;80.40;;;5.13;64.36;94500.56;5041232;28;20312;-79
2021/01/08 10:18:24;;;;;;;23.23;13.88;;;5.80;80.00;;;5.23;64.03;94502.16;5045653;28;20184;-80
2021/01/08 10:21:13;;;;;;;21.35;13.82;;;5.80;80.20;;;5.27;64.31;94499.06;5064375;28;20235;-79
2021/01/08 10:23:43;;;;;;;22.10;13.00;;;6.00;79.90;;;5.35;64.20;94489.59;5040133;28;20195;-79
2021/01/08 10:26:16;;;;;;;27.40;14.90;;;6.00;80.50;;;5.40;63.64;94485.50;5047849;28;20277;-79
2021/01/08 10:28:52;;;;;;;28.15;16.08;;;6.00;80.10;;;5.41;63.62;94483.72;5064616;28;20222;-78
2021/01/08 10:31:21;;;;;;;30.35;15.85;;;6.10;80.00;;;5.43;63.77;94479.97;5047687;28;20246;-78
2021/01/08 10:33:48;;;;;;;28.05;15.32;;;6.20;81.00;;;5.44;63.29;94475.56;5051291;28;20295;-78
2021/01/08 10:36:16;;;;;;;28.98;16.55;;;6.20;80.20;;;5.39;62.88;94480.47;5051729;28;20232;-78